sensor_id;sensor_type;location;lat;lon;timestamp;P1;durP1;ratioP1;P2;durP2;ratioP2
67554;SDS011;54385;53.516;49.456;2024-02-15T00:01:19;8.32;;;5.50;;
67554;SDS011;54385;53.516;49.456;2024-02-15T00:03:46;7.25;;;5.35;;
67554;SDS011;54385;53.516;49.456;2024-02-15T00:06:12;7.47;;;5.22;;
67554;SDS011;54385;53.516;49.456;2024-02-15T00:08:39;7.32;;;5.10;;
67554;SDS011;54385;53.516;49.456;2024-02-15T00:11:08;7.57;;;5.15;;
67554;SDS011;54385;53.516;49.456;2024-02-15T00:13:35;8.50;;;5.85;;
67554;SDS011;54385;53.516;49.456;2024-02-15T00:16:02;7.20;;;5.18;;
67554;SDS011;54385;53.516;49.456;2024-02-15T00:18:28;7.80;;;5.85;;
67554;SDS011;54385;53.516;49.456;2024-02-15T00:20:55;7.30;;;5.28;;
67554;SDS011;54385;53.516;49.456;2024-02-15T00:23:21;8.20;;;5.60;;
67554;SDS011;54385;53.516;49.456;2024-02-15T00:25:48;7.00;;;5.50;;
67554;SDS011;54385;53.516;49.456;2024-02-15T00:28:15;7.20;;;5.43;;
67554;SDS011;54385;53.516;49.456;2024-02-15T00:30:42;8.32;;;5.70;;
67554;SDS011;54385;53.516;49.456;2024-02-15T00:33:08;7.22;;;5.25;;
67554;SDS011;54385;53.516;49.456;2024-02-15T00:35:34;7.80;;;5.13;;
67554;SDS011;54385;53.516;49.456;2024-02-15T00:38:01;6.82;;;5.32;;
67554;SDS011;54385;53.516;49.456;2024-02-15T00:40:28;8.65;;;5.72;;
67554;SDS011;54385;53.516;49.456;2024-02-15T00:42:55;8.65;;;6.10;;
67554;SDS011;54385;53.516;49.456;2024-02-15T00:45:24;7.63;;;5.38;;
67554;SDS011;54385;53.516;49.456;2024-02-15T00:47:50;7.53;;;5.65;;
67554;SDS011;54385;53.516;49.456;2024-02-15T00:50:17;7.82;;;5.60;;
67554;SDS011;54385;53.516;49.456;2024-02-15T00:52:43;8.05;;;5.68;;
67554;SDS011;54385;53.516;49.456;2024-02-15T00:55:10;7.80;;;5.65;;
67554;SDS011;54385;53.516;49.456;2024-02-15T00:57:36;8.35;;;5.60;;
67554;SDS011;54385;53.516;49.456;2024-02-15T01:00:04;7.43;;;5.60;;
67554;SDS011;54385;53.516;49.456;2024-02-15T01:02:32;8.38;;;5.80;;
67554;SDS011;54385;53.516;49.456;2024-02-15T01:04:59;7.70;;;4.93;;
67554;SDS011;54385;53.516;49.456;2024-02-15T01:07:25;7.82;;;5.15;;
67554;SDS011;54385;53.516;49.456;2024-02-15T01:09:53;7.65;;;5.68;;
67554;SDS011;54385;53.516;49.456;2024-02-15T01:12:20;7.70;;;6.30;;
67554;SDS011;54385;53.516;49.456;2024-02-15T01:14:50;8.18;;;5.47;;
67554;SDS011;54385;53.516;49.456;2024-02-15T01:17:16;7.78;;;5.78;;
67554;SDS011;54385;53.516;49.456;2024-02-15T01:19:43;7.93;;;5.80;;
67554;SDS011;54385;53.516;49.456;2024-02-15T01:22:09;7.32;;;5.35;;
67554;SDS011;54385;53.516;49.456;2024-02-15T01:24:36;7.78;;;5.45;;
67554;SDS011;54385;53.516;49.456;2024-02-15T01:27:03;8.68;;;5.63;;
67554;SDS011;54385;53.516;49.456;2024-02-15T01:29:29;8.02;;;5.47;;
67554;SDS011;54385;53.516;49.456;2024-02-15T01:31:56;7.80;;;5.68;;
67554;SDS011;54385;53.516;49.456;2024-02-15T01:34:22;7.40;;;5.47;;
67554;SDS011;54385;53.516;49.456;2024-02-15T01:36:49;8.00;;;5.75;;
67554;SDS011;54385;53.516;49.456;2024-02-15T01:39:16;8.10;;;5.32;;
67554;SDS011;54385;53.516;49.456;2024-02-15T01:41:46;7.03;;;5.53;;
67554;SDS011;54385;53.516;49.456;2024-02-15T01:44:14;7.72;;;5.90;;
67554;SDS011;54385;53.516;49.456;2024-02-15T01:46:40;7.88;;;6.03;;
67554;SDS011;54385;53.516;49.456;2024-02-15T01:49:07;8.30;;;5.28;;
67554;SDS011;54385;53.516;49.456;2024-02-15T01:51:33;8.45;;;5.70;;
67554;SDS011;54385;53.516;49.456;2024-02-15T01:54:03;8.57;;;5.38;;
67554;SDS011;54385;53.516;49.456;2024-02-15T01:56:30;7.13;;;5.40;;
67554;SDS011;54385;53.516;49.456;2024-02-15T01:58:57;8.85;;;5.78;;
67554;SDS011;54385;53.516;49.456;2024-02-15T02:01:24;9.15;;;6.03;;
67554;SDS011;54385;53.516;49.456;2024-02-15T02:03:51;8.07;;;5.90;;
67554;SDS011;54385;53.516;49.456;2024-02-15T02:06:18;8.25;;;5.57;;
67554;SDS011;54385;53.516;49.456;2024-02-15T02:08:45;6.45;;;4.97;;
67554;SDS011;54385;53.516;49.456;2024-02-15T02:11:11;7.10;;;5.55;;
67554;SDS011;54385;53.516;49.456;2024-02-15T02:13:38;6.97;;;5.28;;
67554;SDS011;54385;53.516;49.456;2024-02-15T02:16:21;7.43;;;5.15;;
67554;SDS011;54385;53.516;49.456;2024-02-15T02:19:01;7.43;;;5.28;;
67554;SDS011;54385;53.516;49.456;2024-02-15T02:21:28;6.93;;;5.50;;
67554;SDS011;54385;53.516;49.456;2024-02-15T02:24:00;6.63;;;4.97;;
67554;SDS011;54385;53.516;49.456;2024-02-15T02:26:34;7.88;;;5.53;;
67554;SDS011;54385;53.516;49.456;2024-02-15T02:29:00;7.47;;;5.07;;
67554;SDS011;54385;53.516;49.456;2024-02-15T02:34:18;7.63;;;5.63;;
67554;SDS011;54385;53.516;49.456;2024-02-15T02:36:45;8.48;;;5.60;;
67554;SDS011;54385;53.516;49.456;2024-02-15T02:39:13;8.13;;;5.50;;
67554;SDS011;54385;53.516;49.456;2024-02-15T02:41:41;6.32;;;4.88;;
67554;SDS011;54385;53.516;49.456;2024-02-15T02:44:08;8.77;;;5.60;;
67554;SDS011;54385;53.516;49.456;2024-02-15T02:46:38;7.47;;;5.35;;
67554;SDS011;54385;53.516;49.456;2024-02-15T02:49:09;7.82;;;5.07;;
67554;SDS011;54385;53.516;49.456;2024-02-15T02:51:35;7.30;;;5.13;;
67554;SDS011;54385;53.516;49.456;2024-02-15T02:54:02;7.78;;;5.00;;
67554;SDS011;54385;53.516;49.456;2024-02-15T02:56:32;7.90;;;5.47;;
67554;SDS011;54385;53.516;49.456;2024-02-15T02:58:59;7.28;;;5.30;;
67554;SDS011;54385;53.516;49.456;2024-02-15T03:01:25;7.05;;;5.10;;
67554;SDS011;54385;53.516;49.456;2024-02-15T03:04:06;7.45;;;5.40;;
67554;SDS011;54385;53.516;49.456;2024-02-15T03:06:33;7.20;;;5.40;;
67554;SDS011;54385;53.516;49.456;2024-02-15T03:09:00;8.27;;;5.82;;
67554;SDS011;54385;53.516;49.456;2024-02-15T03:11:27;6.97;;;5.32;;
67554;SDS011;54385;53.516;49.456;2024-02-15T03:13:53;7.82;;;5.28;;
67554;SDS011;54385;53.516;49.456;2024-02-15T03:16:23;8.07;;;5.15;;
67554;SDS011;54385;53.516;49.456;2024-02-15T03:18:51;7.68;;;4.90;;
67554;SDS011;54385;53.516;49.456;2024-02-15T03:21:18;9.05;;;5.20;;
67554;SDS011;54385;53.516;49.456;2024-02-15T03:23:46;9.75;;;5.28;;
67554;SDS011;54385;53.516;49.456;2024-02-15T03:26:12;7.07;;;5.15;;
67554;SDS011;54385;53.516;49.456;2024-02-15T03:28:40;7.57;;;5.43;;
67554;SDS011;54385;53.516;49.456;2024-02-15T03:31:07;7.40;;;5.50;;
67554;SDS011;54385;53.516;49.456;2024-02-15T03:33:33;9.48;;;6.18;;
67554;SDS011;54385;53.516;49.456;2024-02-15T03:36:00;8.30;;;5.45;;
67554;SDS011;54385;53.516;49.456;2024-02-15T03:38:27;7.95;;;5.70;;
67554;SDS011;54385;53.516;49.456;2024-02-15T03:40:55;7.88;;;5.30;;
67554;SDS011;54385;53.516;49.456;2024-02-15T03:43:22;7.85;;;5.25;;
67554;SDS011;54385;53.516;49.456;2024-02-15T03:45:49;8.68;;;6.10;;
67554;SDS011;54385;53.516;49.456;2024-02-15T03:48:16;8.63;;;5.55;;
67554;SDS011;54385;53.516;49.456;2024-02-15T03:50:43;7.63;;;5.47;;
67554;SDS011;54385;53.516;49.456;2024-02-15T03:53:11;8.88;;;5.90;;
67554;SDS011;54385;53.516;49.456;2024-02-15T03:55:40;8.50;;;5.93;;
67554;SDS011;54385;53.516;49.456;2024-02-15T03:58:08;9.05;;;6.40;;
67554;SDS011;54385;53.516;49.456;2024-02-15T04:00:36;7.55;;;5.65;;
67554;SDS011;54385;53.516;49.456;2024-02-15T04:03:03;9.68;;;6.28;;
67554;SDS011;54385;53.516;49.456;2024-02-15T04:05:30;8.63;;;6.00;;
67554;SDS011;54385;53.516;49.456;2024-02-15T04:07:57;9.38;;;6.72;;
67554;SDS011;54385;53.516;49.456;2024-02-15T04:10:24;9.85;;;6.55;;
67554;SDS011;54385;53.516;49.456;2024-02-15T04:12:51;10.55;;;6.82;;
67554;SDS011;54385;53.516;49.456;2024-02-15T04:15:17;9.77;;;7.50;;
67554;SDS011;54385;53.516;49.456;2024-02-15T04:17:47;11.65;;;6.57;;
67554;SDS011;54385;53.516;49.456;2024-02-15T04:20:13;10.85;;;7.07;;
67554;SDS011;54385;53.516;49.456;2024-02-15T04:22:41;9.57;;;6.20;;
67554;SDS011;54385;53.516;49.456;2024-02-15T04:25:09;12.23;;;7.50;;
67554;SDS011;54385;53.516;49.456;2024-02-15T04:27:36;10.07;;;6.85;;
67554;SDS011;54385;53.516;49.456;2024-02-15T04:30:03;10.45;;;7.53;;
67554;SDS011;54385;53.516;49.456;2024-02-15T04:32:30;10.10;;;6.97;;
67554;SDS011;54385;53.516;49.456;2024-02-15T04:34:59;11.10;;;7.75;;
67554;SDS011;54385;53.516;49.456;2024-02-15T04:37:31;11.07;;;7.82;;
67554;SDS011;54385;53.516;49.456;2024-02-15T04:40:06;14.65;;;8.07;;
67554;SDS011;54385;53.516;49.456;2024-02-15T04:42:36;11.80;;;8.07;;
67554;SDS011;54385;53.516;49.456;2024-02-15T04:45:14;11.23;;;7.35;;
67554;SDS011;54385;53.516;49.456;2024-02-15T04:47:46;11.13;;;8.18;;
67554;SDS011;54385;53.516;49.456;2024-02-15T04:50:16;11.60;;;7.65;;
67554;SDS011;54385;53.516;49.456;2024-02-15T04:52:44;10.88;;;8.02;;
67554;SDS011;54385;53.516;49.456;2024-02-15T04:55:16;14.60;;;8.45;;
67554;SDS011;54385;53.516;49.456;2024-02-15T04:57:43;10.18;;;7.47;;
67554;SDS011;54385;53.516;49.456;2024-02-15T05:00:13;11.35;;;8.27;;
67554;SDS011;54385;53.516;49.456;2024-02-15T05:02:59;11.20;;;7.93;;
67554;SDS011;54385;53.516;49.456;2024-02-15T05:05:38;13.05;;;9.40;;
67554;SDS011;54385;53.516;49.456;2024-02-15T05:08:09;10.88;;;7.97;;
67554;SDS011;54385;53.516;49.456;2024-02-15T05:10:35;11.60;;;7.88;;
67554;SDS011;54385;53.516;49.456;2024-02-15T05:13:02;11.95;;;7.85;;
67554;SDS011;54385;53.516;49.456;2024-02-15T05:15:29;12.43;;;7.93;;
67554;SDS011;54385;53.516;49.456;2024-02-15T05:17:56;11.98;;;8.23;;
67554;SDS011;54385;53.516;49.456;2024-02-15T05:20:23;11.45;;;8.52;;
67554;SDS011;54385;53.516;49.456;2024-02-15T05:22:51;12.45;;;7.82;;
67554;SDS011;54385;53.516;49.456;2024-02-15T05:25:20;12.15;;;8.65;;
67554;SDS011;54385;53.516;49.456;2024-02-15T05:27:53;10.80;;;8.05;;
67554;SDS011;54385;53.516;49.456;2024-02-15T05:30:20;10.15;;;7.57;;
67554;SDS011;54385;53.516;49.456;2024-02-15T05:32:58;12.15;;;8.05;;
67554;SDS011;54385;53.516;49.456;2024-02-15T05:35:26;9.25;;;7.57;;
67554;SDS011;54385;53.516;49.456;2024-02-15T05:37:53;10.73;;;7.78;;
67554;SDS011;54385;53.516;49.456;2024-02-15T05:40:20;13.32;;;8.05;;
67554;SDS011;54385;53.516;49.456;2024-02-15T05:42:54;9.52;;;7.78;;
67554;SDS011;54385;53.516;49.456;2024-02-15T05:45:34;10.15;;;7.45;;
67554;SDS011;54385;53.516;49.456;2024-02-15T05:48:05;11.20;;;7.85;;
67554;SDS011;54385;53.516;49.456;2024-02-15T05:50:47;11.88;;;7.78;;
67554;SDS011;54385;53.516;49.456;2024-02-15T05:53:18;11.55;;;7.72;;
67554;SDS011;54385;53.516;49.456;2024-02-15T05:55:45;13.48;;;7.93;;
67554;SDS011;54385;53.516;49.456;2024-02-15T05:58:16;11.98;;;7.47;;
67554;SDS011;54385;53.516;49.456;2024-02-15T06:00:45;9.85;;;7.68;;
67554;SDS011;54385;53.516;49.456;2024-02-15T06:03:16;12.02;;;7.88;;
67554;SDS011;54385;53.516;49.456;2024-02-15T06:05:57;14.10;;;8.32;;
67554;SDS011;54385;53.516;49.456;2024-02-15T06:08:25;10.00;;;7.82;;
67554;SDS011;54385;53.516;49.456;2024-02-15T06:10:58;10.73;;;7.95;;
67554;SDS011;54385;53.516;49.456;2024-02-15T06:13:25;10.48;;;7.50;;
67554;SDS011;54385;53.516;49.456;2024-02-15T06:15:55;9.75;;;7.43;;
67554;SDS011;54385;53.516;49.456;2024-02-15T06:18:33;9.45;;;7.32;;
67554;SDS011;54385;53.516;49.456;2024-02-15T06:21:03;12.60;;;7.45;;
67554;SDS011;54385;53.516;49.456;2024-02-15T06:23:49;9.82;;;7.28;;
67554;SDS011;54385;53.516;49.456;2024-02-15T06:26:31;10.93;;;6.85;;
67554;SDS011;54385;53.516;49.456;2024-02-15T06:28:59;12.65;;;6.60;;
67554;SDS011;54385;53.516;49.456;2024-02-15T06:31:48;9.80;;;7.07;;
67554;SDS011;54385;53.516;49.456;2024-02-15T06:34:33;8.52;;;6.85;;
67554;SDS011;54385;53.516;49.456;2024-02-15T06:37:36;9.82;;;6.80;;
67554;SDS011;54385;53.516;49.456;2024-02-15T06:40:22;11.38;;;6.72;;
67554;SDS011;54385;53.516;49.456;2024-02-15T06:42:56;8.75;;;6.35;;
67554;SDS011;54385;53.516;49.456;2024-02-15T06:45:23;11.43;;;6.75;;
67554;SDS011;54385;53.516;49.456;2024-02-15T06:47:50;12.98;;;6.95;;
67554;SDS011;54385;53.516;49.456;2024-02-15T06:50:17;8.40;;;6.63;;
67554;SDS011;54385;53.516;49.456;2024-02-15T06:52:45;10.50;;;6.88;;
67554;SDS011;54385;53.516;49.456;2024-02-15T06:55:21;9.23;;;6.75;;
67554;SDS011;54385;53.516;49.456;2024-02-15T06:57:55;11.00;;;6.97;;
67554;SDS011;54385;53.516;49.456;2024-02-15T07:00:22;11.15;;;6.95;;
67554;SDS011;54385;53.516;49.456;2024-02-15T07:02:51;9.15;;;6.53;;
67554;SDS011;54385;53.516;49.456;2024-02-15T07:05:24;11.60;;;7.00;;
67554;SDS011;54385;53.516;49.456;2024-02-15T07:08:00;9.90;;;6.70;;
67554;SDS011;54385;53.516;49.456;2024-02-15T07:10:31;8.50;;;6.35;;
67554;SDS011;54385;53.516;49.456;2024-02-15T07:16:59;8.75;;;6.45;;
67554;SDS011;54385;53.516;49.456;2024-02-15T07:20:13;22.25;;;10.70;;
67554;SDS011;54385;53.516;49.456;2024-02-15T07:22:51;22.88;;;10.60;;
67554;SDS011;54385;53.516;49.456;2024-02-15T07:28:59;31.65;;;13.07;;
67554;SDS011;54385;53.516;49.456;2024-02-15T07:31:41;29.90;;;12.70;;
67554;SDS011;54385;53.516;49.456;2024-02-15T07:34:17;36.97;;;14.50;;
67554;SDS011;54385;53.516;49.456;2024-02-15T07:43:07;89.82;;;29.75;;
67554;SDS011;54385;53.516;49.456;2024-02-15T07:46:20;89.75;;;30.00;;
67554;SDS011;54385;53.516;49.456;2024-02-15T07:48:58;99.57;;;33.58;;
67554;SDS011;54385;53.516;49.456;2024-02-15T07:55:02;92.85;;;31.45;;
67554;SDS011;54385;53.516;49.456;2024-02-15T07:57:36;106.03;;;32.85;;
67554;SDS011;54385;53.516;49.456;2024-02-15T08:00:12;108.43;;;36.05;;
67554;SDS011;54385;53.516;49.456;2024-02-15T08:06:23;148.50;;;44.03;;
67554;SDS011;54385;53.516;49.456;2024-02-15T08:08:59;179.65;;;53.38;;
67554;SDS011;54385;53.516;49.456;2024-02-15T08:11:41;201.60;;;60.35;;
67554;SDS011;54385;53.516;49.456;2024-02-15T08:14:10;184.15;;;55.92;;
67554;SDS011;54385;53.516;49.456;2024-02-15T08:16:38;173.82;;;52.70;;
67554;SDS011;54385;53.516;49.456;2024-02-15T08:19:27;178.55;;;57.67;;
67554;SDS011;54385;53.516;49.456;2024-02-15T08:22:13;199.45;;;58.05;;
67554;SDS011;54385;53.516;49.456;2024-02-15T08:24:40;193.85;;;59.65;;
67554;SDS011;54385;53.516;49.456;2024-02-15T08:27:10;215.60;;;62.75;;
67554;SDS011;54385;53.516;49.456;2024-02-15T08:29:39;210.63;;;66.53;;
67554;SDS011;54385;53.516;49.456;2024-02-15T08:32:07;239.10;;;69.18;;
67554;SDS011;54385;53.516;49.456;2024-02-15T08:34:44;208.57;;;60.63;;
67554;SDS011;54385;53.516;49.456;2024-02-15T08:37:11;171.35;;;55.80;;
67554;SDS011;54385;53.516;49.456;2024-02-15T08:39:43;168.75;;;49.90;;
67554;SDS011;54385;53.516;49.456;2024-02-15T08:42:10;143.43;;;47.28;;
67554;SDS011;54385;53.516;49.456;2024-02-15T08:44:40;125.35;;;40.13;;
67554;SDS011;54385;53.516;49.456;2024-02-15T08:47:13;113.88;;;40.35;;
67554;SDS011;54385;53.516;49.456;2024-02-15T08:49:42;111.55;;;36.88;;
67554;SDS011;54385;53.516;49.456;2024-02-15T08:52:16;105.13;;;33.53;;
67554;SDS011;54385;53.516;49.456;2024-02-15T08:55:00;105.15;;;33.92;;
67554;SDS011;54385;53.516;49.456;2024-02-15T08:57:27;122.57;;;39.17;;
67554;SDS011;54385;53.516;49.456;2024-02-15T08:59:57;148.63;;;46.35;;
67554;SDS011;54385;53.516;49.456;2024-02-15T09:02:23;140.75;;;44.63;;
67554;SDS011;54385;53.516;49.456;2024-02-15T09:04:53;140.10;;;44.67;;
67554;SDS011;54385;53.516;49.456;2024-02-15T09:07:28;137.27;;;42.58;;
67554;SDS011;54385;53.516;49.456;2024-02-15T09:10:14;128.82;;;42.22;;
67554;SDS011;54385;53.516;49.456;2024-02-15T09:13:13;118.50;;;38.72;;
67554;SDS011;54385;53.516;49.456;2024-02-15T09:15:41;165.18;;;53.22;;
67554;SDS011;54385;53.516;49.456;2024-02-15T09:18:23;146.57;;;45.90;;
67554;SDS011;54385;53.516;49.456;2024-02-15T09:21:10;135.23;;;43.22;;
67554;SDS011;54385;53.516;49.456;2024-02-15T09:23:42;132.43;;;43.28;;
67554;SDS011;54385;53.516;49.456;2024-02-15T09:26:09;137.43;;;44.60;;
67554;SDS011;54385;53.516;49.456;2024-02-15T09:28:44;180.20;;;53.88;;
67554;SDS011;54385;53.516;49.456;2024-02-15T09:31:16;156.63;;;50.25;;
67554;SDS011;54385;53.516;49.456;2024-02-15T09:34:11;179.25;;;55.30;;
67554;SDS011;54385;53.516;49.456;2024-02-15T09:36:52;176.70;;;55.75;;
67554;SDS011;54385;53.516;49.456;2024-02-15T09:39:42;179.65;;;57.42;;
67554;SDS011;54385;53.516;49.456;2024-02-15T09:42:16;209.10;;;67.82;;
67554;SDS011;54385;53.516;49.456;2024-02-15T09:44:43;241.18;;;74.65;;
67554;SDS011;54385;53.516;49.456;2024-02-15T09:47:16;263.60;;;87.43;;
67554;SDS011;54385;53.516;49.456;2024-02-15T09:49:49;269.42;;;90.88;;
67554;SDS011;54385;53.516;49.456;2024-02-15T09:52:16;300.77;;;99.05;;
67554;SDS011;54385;53.516;49.456;2024-02-15T09:54:43;301.85;;;99.85;;
67554;SDS011;54385;53.516;49.456;2024-02-15T09:57:13;288.27;;;95.55;;
67554;SDS011;54385;53.516;49.456;2024-02-15T09:59:48;275.35;;;88.47;;
67554;SDS011;54385;53.516;49.456;2024-02-15T10:02:16;237.93;;;79.07;;
67554;SDS011;54385;53.516;49.456;2024-02-15T10:04:44;226.18;;;71.15;;
67554;SDS011;54385;53.516;49.456;2024-02-15T10:07:26;212.27;;;68.07;;
67554;SDS011;54385;53.516;49.456;2024-02-15T10:16:14;206.65;;;62.63;;
67554;SDS011;54385;53.516;49.456;2024-02-15T10:19:13;176.20;;;55.13;;
67554;SDS011;54385;53.516;49.456;2024-02-15T10:22:05;176.27;;;54.47;;
67554;SDS011;54385;53.516;49.456;2024-02-15T10:25:13;166.50;;;52.80;;
67554;SDS011;54385;53.516;49.456;2024-02-15T10:28:08;156.52;;;50.22;;
67554;SDS011;54385;53.516;49.456;2024-02-15T10:36:20;145.15;;;47.65;;
67554;SDS011;54385;53.516;49.456;2024-02-15T10:39:40;141.07;;;46.72;;
67554;SDS011;54385;53.516;49.456;2024-02-15T10:43:41;127.65;;;41.97;;
67554;SDS011;54385;53.516;49.456;2024-02-15T10:46:09;125.18;;;41.95;;
67554;SDS011;54385;53.516;49.456;2024-02-15T10:48:45;115.47;;;40.65;;
67554;SDS011;54385;53.516;49.456;2024-02-15T10:51:19;117.22;;;39.65;;
67554;SDS011;54385;53.516;49.456;2024-02-15T10:54:40;115.00;;;38.78;;
67554;SDS011;54385;53.516;49.456;2024-02-15T10:57:09;114.38;;;36.75;;
67554;SDS011;54385;53.516;49.456;2024-02-15T11:03:35;100.32;;;34.72;;
67554;SDS011;54385;53.516;49.456;2024-02-15T11:06:02;92.85;;;33.63;;
67554;SDS011;54385;53.516;49.456;2024-02-15T11:09:01;99.95;;;35.25;;
67554;SDS011;54385;53.516;49.456;2024-02-15T11:12:03;94.82;;;34.92;;
67554;SDS011;54385;53.516;49.456;2024-02-15T11:14:46;98.50;;;33.97;;
67554;SDS011;54385;53.516;49.456;2024-02-15T11:17:14;93.55;;;32.72;;
67554;SDS011;54385;53.516;49.456;2024-02-15T11:20:06;89.68;;;31.65;;
67554;SDS011;54385;53.516;49.456;2024-02-15T11:22:40;83.15;;;29.02;;
67554;SDS011;54385;53.516;49.456;2024-02-15T11:25:08;85.65;;;28.85;;
67554;SDS011;54385;53.516;49.456;2024-02-15T11:27:37;84.45;;;29.02;;
67554;SDS011;54385;53.516;49.456;2024-02-15T11:30:08;84.93;;;29.00;;
67554;SDS011;54385;53.516;49.456;2024-02-15T11:32:49;72.25;;;27.52;;
67554;SDS011;54385;53.516;49.456;2024-02-15T11:35:20;86.57;;;29.52;;
67554;SDS011;54385;53.516;49.456;2024-02-15T11:37:56;78.15;;;27.63;;
67554;SDS011;54385;53.516;49.456;2024-02-15T11:46:25;65.88;;;24.73;;
67554;SDS011;54385;53.516;49.456;2024-02-15T11:49:17;63.47;;;24.20;;
67554;SDS011;54385;53.516;49.456;2024-02-15T11:52:13;64.78;;;23.17;;
67554;SDS011;54385;53.516;49.456;2024-02-15T11:55:04;60.83;;;22.67;;
67554;SDS011;54385;53.516;49.456;2024-02-15T11:57:37;59.33;;;21.60;;
67554;SDS011;54385;53.516;49.456;2024-02-15T12:00:22;54.28;;;21.42;;
67554;SDS011;54385;53.516;49.456;2024-02-15T12:03:22;55.28;;;21.15;;
67554;SDS011;54385;53.516;49.456;2024-02-15T12:06:11;59.38;;;21.20;;
67554;SDS011;54385;53.516;49.456;2024-02-15T12:09:01;51.47;;;21.35;;
67554;SDS011;54385;53.516;49.456;2024-02-15T12:11:47;53.50;;;20.45;;
67554;SDS011;54385;53.516;49.456;2024-02-15T12:14:42;48.33;;;18.90;;
67554;SDS011;54385;53.516;49.456;2024-02-15T12:17:27;53.25;;;18.73;;
67554;SDS011;54385;53.516;49.456;2024-02-15T12:20:13;47.38;;;18.83;;
67554;SDS011;54385;53.516;49.456;2024-02-15T12:22:42;46.05;;;17.33;;
67554;SDS011;54385;53.516;49.456;2024-02-15T12:25:21;43.88;;;17.90;;
67554;SDS011;54385;53.516;49.456;2024-02-15T12:27:58;42.75;;;17.15;;
67554;SDS011;54385;53.516;49.456;2024-02-15T12:30:35;38.20;;;17.05;;
67554;SDS011;54385;53.516;49.456;2024-02-15T12:33:12;44.05;;;16.45;;
67554;SDS011;54385;53.516;49.456;2024-02-15T12:35:46;38.47;;;17.55;;
67554;SDS011;54385;53.516;49.456;2024-02-15T12:38:17;41.35;;;15.85;;
67554;SDS011;54385;53.516;49.456;2024-02-15T12:40:47;41.22;;;15.75;;
67554;SDS011;54385;53.516;49.456;2024-02-15T12:43:28;36.05;;;15.82;;
67554;SDS011;54385;53.516;49.456;2024-02-15T12:46:05;35.83;;;15.00;;
67554;SDS011;54385;53.516;49.456;2024-02-15T12:48:35;36.90;;;15.52;;
67554;SDS011;54385;53.516;49.456;2024-02-15T12:51:12;34.90;;;15.07;;
67554;SDS011;54385;53.516;49.456;2024-02-15T12:53:49;34.75;;;14.95;;
67554;SDS011;54385;53.516;49.456;2024-02-15T12:56:21;33.70;;;14.48;;
67554;SDS011;54385;53.516;49.456;2024-02-15T12:58:51;34.17;;;13.95;;
67554;SDS011;54385;53.516;49.456;2024-02-15T13:01:19;31.80;;;13.23;;
67554;SDS011;54385;53.516;49.456;2024-02-15T13:03:46;34.85;;;13.95;;
67554;SDS011;54385;53.516;49.456;2024-02-15T13:06:13;28.38;;;13.25;;
67554;SDS011;54385;53.516;49.456;2024-02-15T13:08:43;30.88;;;12.57;;
67554;SDS011;54385;53.516;49.456;2024-02-15T13:11:14;30.05;;;12.98;;
67554;SDS011;54385;53.516;49.456;2024-02-15T13:13:42;28.05;;;12.93;;
67554;SDS011;54385;53.516;49.456;2024-02-15T13:16:09;27.25;;;12.02;;
67554;SDS011;54385;53.516;49.456;2024-02-15T13:18:36;28.67;;;12.32;;
67554;SDS011;54385;53.516;49.456;2024-02-15T13:21:06;30.25;;;12.15;;
67554;SDS011;54385;53.516;49.456;2024-02-15T13:23:43;30.13;;;13.05;;
67554;SDS011;54385;53.516;49.456;2024-02-15T13:26:10;26.10;;;11.55;;
67554;SDS011;54385;53.516;49.456;2024-02-15T13:28:40;26.35;;;11.75;;
67554;SDS011;54385;53.516;49.456;2024-02-15T13:31:10;26.17;;;10.90;;
67554;SDS011;54385;53.516;49.456;2024-02-15T13:33:39;26.10;;;10.65;;
67554;SDS011;54385;53.516;49.456;2024-02-15T13:36:05;25.90;;;10.15;;
67554;SDS011;54385;53.516;49.456;2024-02-15T13:38:39;22.70;;;10.40;;
67554;SDS011;54385;53.516;49.456;2024-02-15T13:41:07;21.85;;;10.38;;
67554;SDS011;54385;53.516;49.456;2024-02-15T13:43:34;25.95;;;10.65;;
67554;SDS011;54385;53.516;49.456;2024-02-15T13:46:01;23.63;;;9.35;;
67554;SDS011;54385;53.516;49.456;2024-02-15T13:48:29;23.88;;;9.82;;
67554;SDS011;54385;53.516;49.456;2024-02-15T13:51:00;23.25;;;10.02;;
67554;SDS011;54385;53.516;49.456;2024-02-15T13:53:27;25.08;;;9.98;;
67554;SDS011;54385;53.516;49.456;2024-02-15T13:55:55;23.90;;;9.40;;
67554;SDS011;54385;53.516;49.456;2024-02-15T13:58:26;20.73;;;8.77;;
67554;SDS011;54385;53.516;49.456;2024-02-15T14:00:58;18.73;;;8.82;;
67554;SDS011;54385;53.516;49.456;2024-02-15T14:03:32;20.25;;;9.32;;
67554;SDS011;54385;53.516;49.456;2024-02-15T14:06:00;18.33;;;8.68;;
67554;SDS011;54385;53.516;49.456;2024-02-15T14:08:28;17.20;;;8.60;;
67554;SDS011;54385;53.516;49.456;2024-02-15T14:10:59;17.13;;;8.13;;
67554;SDS011;54385;53.516;49.456;2024-02-15T14:13:27;16.75;;;7.88;;
67554;SDS011;54385;53.516;49.456;2024-02-15T14:16:02;16.75;;;8.02;;
67554;SDS011;54385;53.516;49.456;2024-02-15T14:18:32;20.45;;;8.02;;
67554;SDS011;54385;53.516;49.456;2024-02-15T14:21:05;17.52;;;8.00;;
67554;SDS011;54385;53.516;49.456;2024-02-15T14:23:36;14.68;;;6.68;;
67554;SDS011;54385;53.516;49.456;2024-02-15T14:26:04;15.98;;;7.57;;
67554;SDS011;54385;53.516;49.456;2024-02-15T14:28:30;16.17;;;7.60;;
67554;SDS011;54385;53.516;49.456;2024-02-15T14:31:07;17.08;;;7.50;;
67554;SDS011;54385;53.516;49.456;2024-02-15T14:33:54;15.73;;;7.57;;
67554;SDS011;54385;53.516;49.456;2024-02-15T14:36:22;16.80;;;7.65;;
67554;SDS011;54385;53.516;49.456;2024-02-15T14:38:51;14.43;;;7.07;;
67554;SDS011;54385;53.516;49.456;2024-02-15T14:41:29;14.07;;;6.68;;
67554;SDS011;54385;53.516;49.456;2024-02-15T14:43:57;12.95;;;6.10;;
67554;SDS011;54385;53.516;49.456;2024-02-15T14:46:26;12.60;;;6.60;;
67554;SDS011;54385;53.516;49.456;2024-02-15T14:48:53;14.13;;;7.05;;
67554;SDS011;54385;53.516;49.456;2024-02-15T14:51:24;12.10;;;6.68;;
67554;SDS011;54385;53.516;49.456;2024-02-15T14:53:51;15.13;;;6.63;;
67554;SDS011;54385;53.516;49.456;2024-02-15T14:56:18;11.85;;;6.20;;
67554;SDS011;54385;53.516;49.456;2024-02-15T14:58:48;12.27;;;6.18;;
67554;SDS011;54385;53.516;49.456;2024-02-15T15:01:15;13.52;;;6.32;;
67554;SDS011;54385;53.516;49.456;2024-02-15T15:03:42;14.02;;;6.25;;
67554;SDS011;54385;53.516;49.456;2024-02-15T15:06:09;12.90;;;6.13;;
67554;SDS011;54385;53.516;49.456;2024-02-15T15:08:54;11.18;;;6.07;;
67554;SDS011;54385;53.516;49.456;2024-02-15T15:11:39;12.70;;;5.88;;
67554;SDS011;54385;53.516;49.456;2024-02-15T15:14:25;11.10;;;5.80;;
67554;SDS011;54385;53.516;49.456;2024-02-15T15:16:52;13.40;;;5.65;;
67554;SDS011;54385;53.516;49.456;2024-02-15T15:19:19;11.20;;;5.45;;
67554;SDS011;54385;53.516;49.456;2024-02-15T15:21:46;10.35;;;5.35;;
67554;SDS011;54385;53.516;49.456;2024-02-15T15:24:14;10.55;;;5.55;;
67554;SDS011;54385;53.516;49.456;2024-02-15T15:26:41;9.57;;;5.53;;
67554;SDS011;54385;53.516;49.456;2024-02-15T15:29:08;9.75;;;5.35;;
67554;SDS011;54385;53.516;49.456;2024-02-15T15:31:36;8.73;;;5.55;;
67554;SDS011;54385;53.516;49.456;2024-02-15T15:34:04;11.23;;;5.30;;
67554;SDS011;54385;53.516;49.456;2024-02-15T15:36:36;10.02;;;5.20;;